Time;durP1;ratioP1;P1;durP2;ratioP2;P2;SDS_P1;SDS_P2;PMS_P1;PMS_P2;Temp;Humidity;BMP_temperature;BMP_pressure;BME280_temperature;BME280_humidity;BME280_pressure;Samples;Min_cycle;Max_cycle;Signal;HPM_P1;HPM_P2
2023/11/30 00:00:13;;;;;;;81.07;7.90;;;;;;;;;;5007778;28;20045;-69
2023/11/30 00:02:39;;;;;;;101.95;9.45;;;;;;;;;;5009254;28;20065;-68
2023/11/30 00:05:07;;;;;;;97.03;8.25;;;;;;;;;;5021781;28;20541;-69
2023/11/30 00:07:33;;;;;;;96.03;8.32;;;;;;;;;;5028105;28;20049;-69
2023/11/30 00:10:00;;;;;;;104.85;9.55;;;;;;;;;;5045317;28;20037;-69
2023/11/30 00:12:26;;;;;;;105.05;9.15;;;;;;;;;;5028744;28;20399;-68
2023/11/30 00:14:52;;;;;;;106.47;8.38;;;;;;;;;;5030158;28;20037;-69
2023/11/30 00:17:18;;;;;;;103.38;8.30;;;;;;;;;;5024819;28;20060;-68
2023/11/30 00:19:44;;;;;;;76.90;7.38;;;;;;;;;;5022789;28;20111;-68
2023/11/30 00:22:10;;;;;;;108.15;7.85;;;;;;;;;;5005395;28;20045;-69
2023/11/30 00:24:37;;;;;;;86.45;7.53;;;;;;;;;;5022617;28;20061;-68
2023/11/30 00:27:04;;;;;;;108.82;9.80;;;;;;;;;;5024606;28;20140;-69
2023/11/30 00:29:30;;;;;;;100.32;8.25;;;;;;;;;;5025027;28;21912;-69
2023/11/30 00:31:56;;;;;;;76.30;7.10;;;;;;;;;;5007095;28;20049;-69
2023/11/30 00:34:22;;;;;;;134.82;9.52;;;;;;;;;;5024461;28;20122;-69
2023/11/30 00:36:48;;;;;;;170.57;11.35;;;;;;;;;;5022018;28;20045;-69
2023/11/30 00:39:15;;;;;;;98.72;7.10;;;;;;;;;;5039882;28;21615;-69
2023/11/30 00:41:41;;;;;;;88.22;8.05;;;;;;;;;;5022778;28;20049;-68
2023/11/30 00:44:07;;;;;;;64.88;5.75;;;;;;;;;;5026533;28;20235;-69
2023/11/30 00:46:34;;;;;;;72.75;6.60;;;;;;;;;;5025320;28;20037;-68
2023/11/30 00:49:01;;;;;;;56.97;5.97;;;;;;;;;;5027389;28;20068;-69
2023/11/30 00:51:29;;;;;;;56.40;6.43;;;;;;;;;;5008570;28;20147;-69
2023/11/30 00:53:55;;;;;;;67.40;7.22;;;;;;;;;;5004905;28;20294;-68
2023/11/30 00:56:21;;;;;;;41.10;5.72;;;;;;;;;;5025628;28;20132;-69
2023/11/30 00:58:47;;;;;;;75.38;6.72;;;;;;;;;;5025559;28;20118;-69
2023/11/30 01:01:14;;;;;;;27.92;5.47;;;;;;;;;;5021330;28;20060;-68
2023/11/30 01:03:40;;;;;;;44.78;5.57;;;;;;;;;;5026273;28;20045;-69
2023/11/30 01:06:06;;;;;;;52.42;5.75;;;;;;;;;;5006154;28;20037;-69
2023/11/30 01:08:33;;;;;;;121.13;9.82;;;;;;;;;;5024927;28;21666;-69
2023/11/30 01:10:59;;;;;;;128.60;7.15;;;;;;;;;;5025224;28;20060;-69
2023/11/30 01:13:25;;;;;;;100.45;8.35;;;;;;;;;;5022154;28;20465;-69
2023/11/30 01:15:51;;;;;;;114.60;6.82;;;;;;;;;;5028705;28;20037;-68
2023/11/30 01:18:17;;;;;;;63.97;5.25;;;;;;;;;;5028128;28;20175;-69
2023/11/30 01:20:44;;;;;;;55.75;5.40;;;;;;;;;;5025850;28;20079;-68
2023/11/30 01:23:10;;;;;;;96.22;7.68;;;;;;;;;;5027703;28;20100;-68
2023/11/30 01:25:36;;;;;;;62.97;5.88;;;;;;;;;;5010824;28;20102;-69
2023/11/30 01:28:03;;;;;;;43.53;4.75;;;;;;;;;;5023723;28;20052;-69
2023/11/30 01:30:29;;;;;;;56.05;4.80;;;;;;;;;;5028125;28;20049;-69
2023/11/30 01:32:55;;;;;;;94.80;8.10;;;;;;;;;;5026770;28;20125;-68
2023/11/30 01:35:22;;;;;;;101.03;6.78;;;;;;;;;;5027524;28;20440;-69
2023/11/30 01:37:48;;;;;;;71.50;6.30;;;;;;;;;;5024426;28;20048;-68
2023/11/30 01:40:14;;;;;;;53.15;5.45;;;;;;;;;;5026384;28;20048;-69
2023/11/30 01:42:40;;;;;;;33.10;4.97;;;;;;;;;;5024190;28;20132;-68
2023/11/30 01:45:07;;;;;;;42.28;4.72;;;;;;;;;;5045836;28;20041;-69
2023/11/30 01:47:33;;;;;;;45.75;4.32;;;;;;;;;;5026725;28;20063;-69
2023/11/30 01:50:01;;;;;;;29.92;4.70;;;;;;;;;;5044250;28;20091;-68
2023/11/30 01:52:29;;;;;;;26.27;4.50;;;;;;;;;;5025596;28;20438;-68
2023/11/30 01:54:55;;;;;;;26.15;4.40;;;;;;;;;;5024448;28;20041;-69
2023/11/30 01:57:22;;;;;;;23.58;5.00;;;;;;;;;;5040344;28;20144;-68
2023/11/30 01:59:48;;;;;;;26.85;4.50;;;;;;;;;;5045218;28;20067;-69
2023/11/30 02:02:16;;;;;;;56.40;5.95;;;;;;;;;;5022413;28;20582;-69
2023/11/30 02:04:43;;;;;;;21.65;3.90;;;;;;;;;;5024866;28;20049;-69
2023/11/30 02:07:10;;;;;;;46.30;5.15;;;;;;;;;;5045699;28;20127;-68
2023/11/30 02:09:36;;;;;;;37.15;4.97;;;;;;;;;;5027304;28;20094;-69
2023/11/30 02:12:02;;;;;;;64.70;5.63;;;;;;;;;;5039817;28;20071;-68
2023/11/30 02:14:32;;;;;;;59.03;6.03;;;;;;;;;;5021520;28;20044;-68
2023/11/30 02:16:58;;;;;;;24.02;4.28;;;;;;;;;;5026090;28;20512;-68
2023/11/30 02:19:24;;;;;;;26.33;4.80;;;;;;;;;;5044412;28;20053;-69
2023/11/30 02:21:51;;;;;;;29.55;4.93;;;;;;;;;;5026844;28;20051;-69
2023/11/30 02:24:17;;;;;;;29.40;4.88;;;;;;;;;;5010364;28;20041;-69
2023/11/30 02:26:43;;;;;;;23.08;4.63;;;;;;;;;;5025803;28;20045;-69
2023/11/30 02:29:10;;;;;;;29.70;4.80;;;;;;;;;;5026263;28;20488;-69
2023/11/30 02:31:36;;;;;;;63.47;5.72;;;;;;;;;;5009722;28;20067;-69
2023/11/30 02:34:02;;;;;;;101.07;6.00;;;;;;;;;;5041587;28;20036;-69
2023/11/30 02:36:28;;;;;;;126.70;7.60;;;;;;;;;;5026765;28;20455;-69
2023/11/30 02:38:55;;;;;;;142.45;7.78;;;;;;;;;;5044540;28;20484;-68
2023/11/30 02:41:21;;;;;;;145.43;8.45;;;;;;;;;;5040356;28;20049;-69
2023/11/30 02:43:48;;;;;;;112.22;7.07;;;;;;;;;;5022394;28;20053;-68
2023/11/30 02:46:14;;;;;;;71.95;5.00;;;;;;;;;;5026125;28;20084;-69
2023/11/30 02:48:40;;;;;;;37.30;5.50;;;;;;;;;;5026601;28;20044;-68
2023/11/30 02:51:06;;;;;;;65.15;5.38;;;;;;;;;;5024805;28;20099;-68
2023/11/30 02:53:32;;;;;;;55.50;5.00;;;;;;;;;;5041005;28;20057;-68
2023/11/30 02:56:00;;;;;;;51.03;5.20;;;;;;;;;;5024457;28;20044;-68
2023/11/30 02:58:26;;;;;;;50.88;4.05;;;;;;;;;;5021080;28;20045;-68
2023/11/30 03:00:52;;;;;;;29.30;3.67;;;;;;;;;;5026561;28;20045;-69
2023/11/30 03:03:18;;;;;;;24.55;4.22;;;;;;;;;;5027732;28;20047;-69
2023/11/30 03:05:44;;;;;;;31.17;3.75;;;;;;;;;;5008591;28;20045;-69
2023/11/30 03:08:11;;;;;;;35.45;4.32;;;;;;;;;;5027804;28;20072;-69
2023/11/30 03:10:37;;;;;;;31.92;3.83;;;;;;;;;;5045426;28;20053;-68
2023/11/30 03:13:03;;;;;;;26.60;3.80;;;;;;;;;;5027753;28;20043;-69
2023/11/30 03:15:31;;;;;;;26.48;3.50;;;;;;;;;;5009610;28;20048;-68
2023/11/30 03:17:57;;;;;;;35.10;3.75;;;;;;;;;;5043735;28;20111;-68
2023/11/30 03:20:23;;;;;;;22.38;4.05;;;;;;;;;;5024247;28;20057;-68
2023/11/30 03:22:49;;;;;;;22.52;4.22;;;;;;;;;;5027209;28;20132;-68
2023/11/30 03:25:15;;;;;;;35.20;4.38;;;;;;;;;;5044088;28;20083;-68
2023/11/30 03:27:41;;;;;;;33.60;4.13;;;;;;;;;;5025437;28;20044;-69
2023/11/30 03:30:08;;;;;;;53.58;5.05;;;;;;;;;;5008589;28;20045;-69
2023/11/30 03:32:34;;;;;;;61.25;5.18;;;;;;;;;;5042794;28;20059;-69
2023/11/30 03:35:00;;;;;;;55.42;5.60;;;;;;;;;;5024507;28;20052;-69
2023/11/30 03:37:26;;;;;;;51.22;4.32;;;;;;;;;;5024248;28;20048;-69
2023/11/30 03:39:53;;;;;;;80.47;5.35;;;;;;;;;;5043743;28;20135;-69
2023/11/30 03:42:19;;;;;;;67.07;5.25;;;;;;;;;;5024987;28;20048;-69
2023/11/30 03:44:45;;;;;;;71.07;5.40;;;;;;;;;;5025073;28;20236;-69
2023/11/30 03:47:11;;;;;;;62.88;4.50;;;;;;;;;;5027635;28;20091;-69
2023/11/30 03:49:37;;;;;;;46.60;4.40;;;;;;;;;;5023910;28;20053;-68
2023/11/30 03:52:04;;;;;;;51.53;3.53;;;;;;;;;;5026453;28;20041;-68
2023/11/30 03:54:30;;;;;;;40.45;3.17;;;;;;;;;;5020919;28;20063;-68
2023/11/30 03:56:56;;;;;;;42.42;4.43;;;;;;;;;;5040300;28;20068;-69
2023/11/30 03:59:22;;;;;;;65.80;8.15;;;;;;;;;;5023021;28;20040;-68
2023/11/30 04:01:48;;;;;;;28.50;4.90;;;;;;;;;;5023808;28;20512;-69
2023/11/30 04:04:15;;;;;;;32.30;5.35;;;;;;;;;;5039006;28;20045;-68
2023/11/30 04:06:41;;;;;;;31.35;4.75;;;;;;;;;;5042461;28;20037;-69
2023/11/30 04:09:08;;;;;;;22.10;4.45;;;;;;;;;;5024874;28;20057;-69
2023/11/30 04:11:34;;;;;;;12.18;3.75;;;;;;;;;;5025568;28;20088;-69
2023/11/30 04:14:05;;;;;;;7.95;2.85;;;;;;;;;;5042821;28;20037;-69
2023/11/30 04:16:31;;;;;;;18.17;3.97;;;;;;;;;;5022727;28;20408;-68
2023/11/30 04:18:58;;;;;;;10.57;3.47;;;;;;;;;;5025278;28;20438;-69
2023/11/30 04:21:24;;;;;;;7.03;3.03;;;;;;;;;;5044274;28;20113;-69
2023/11/30 04:23:50;;;;;;;7.93;2.75;;;;;;;;;;5008655;28;20037;-69
2023/11/30 04:26:16;;;;;;;10.25;3.60;;;;;;;;;;5024808;28;20431;-69
2023/11/30 04:28:42;;;;;;;17.13;3.33;;;;;;;;;;5024449;28;20045;-69
2023/11/30 04:31:09;;;;;;;11.27;2.70;;;;;;;;;;5020139;28;20068;-69
2023/11/30 04:33:36;;;;;;;5.75;3.17;;;;;;;;;;5039462;28;20068;-69
2023/11/30 04:36:02;;;;;;;7.20;3.17;;;;;;;;;;5020632;28;20053;-69
2023/11/30 04:38:29;;;;;;;4.70;2.40;;;;;;;;;;5024713;28;20043;-69
2023/11/30 04:40:55;;;;;;;5.78;2.80;;;;;;;;;;5039540;28;20053;-69
2023/11/30 04:43:22;;;;;;;13.65;2.85;;;;;;;;;;5021565;28;20484;-69
2023/11/30 04:45:48;;;;;;;4.97;2.35;;;;;;;;;;5027915;28;20067;-69
2023/11/30 04:48:14;;;;;;;12.95;2.78;;;;;;;;;;5026363;28;20037;-69
2023/11/30 04:50:41;;;;;;;20.60;4.22;;;;;;;;;;5029459;28;20429;-69
2023/11/30 04:53:07;;;;;;;12.38;3.00;;;;;;;;;;5032433;28;20048;-69
2023/11/30 04:55:33;;;;;;;15.13;3.03;;;;;;;;;;5032034;28;20397;-69
2023/11/30 04:57:59;;;;;;;19.90;3.58;;;;;;;;;;5016930;28;20071;-70
2023/11/30 05:00:25;;;;;;;10.13;3.15;;;;;;;;;;5045238;28;20048;-69
2023/11/30 05:02:52;;;;;;;10.45;3.20;;;;;;;;;;5025667;28;21047;-69
2023/11/30 05:05:19;;;;;;;5.53;2.78;;;;;;;;;;5024037;28;20426;-69
2023/11/30 05:07:45;;;;;;;4.85;2.33;;;;;;;;;;5022365;28;20049;-69
2023/11/30 05:10:12;;;;;;;6.63;3.67;;;;;;;;;;5026546;28;20037;-69
2023/11/30 05:12:38;;;;;;;5.25;2.75;;;;;;;;;;5026143;28;20053;-69
2023/11/30 05:15:05;;;;;;;4.80;2.40;;;;;;;;;;5024896;28;20056;-70
2023/11/30 05:17:31;;;;;;;4.72;2.30;;;;;;;;;;5025698;28;20056;-69
2023/11/30 05:19:57;;;;;;;4.85;2.60;;;;;;;;;;5043315;28;20055;-70
2023/11/30 05:22:24;;;;;;;5.68;2.60;;;;;;;;;;5024813;28;20049;-70
2023/11/30 05:24:50;;;;;;;4.65;2.33;;;;;;;;;;5027131;28;20037;-69
2023/11/30 05:27:16;;;;;;;5.07;2.70;;;;;;;;;;5025463;28;21641;-69
2023/11/30 05:29:43;;;;;;;6.55;2.55;;;;;;;;;;5024263;28;20096;-69
2023/11/30 05:32:09;;;;;;;5.53;2.80;;;;;;;;;;5030308;28;20037;-69
2023/11/30 05:34:36;;;;;;;6.07;2.75;;;;;;;;;;5024135;28;20055;-69
2023/11/30 05:37:03;;;;;;;5.15;2.90;;;;;;;;;;5008090;28;20071;-69
2023/11/30 05:39:30;;;;;;;5.35;2.70;;;;;;;;;;5027680;28;21316;-69
2023/11/30 05:41:56;;;;;;;5.00;2.47;;;;;;;;;;5040683;28;20071;-69
2023/11/30 05:44:22;;;;;;;4.88;2.60;;;;;;;;;;5025930;28;20040;-69
2023/11/30 05:46:50;;;;;;;4.85;2.35;;;;;;;;;;5043660;28;20037;-69
2023/11/30 05:49:16;;;;;;;5.00;2.45;;;;;;;;;;5025271;28;20067;-69
2023/11/30 05:51:42;;;;;;;5.55;2.85;;;;;;;;;;5023438;28;20049;-69
2023/11/30 05:54:09;;;;;;;4.75;2.47;;;;;;;;;;5026689;28;20053;-69
2023/11/30 05:56:35;;;;;;;5.45;2.97;;;;;;;;;;5028998;28;20053;-69
2023/11/30 05:59:02;;;;;;;5.28;2.92;;;;;;;;;;5027401;28;20044;-69
2023/11/30 06:01:29;;;;;;;5.30;2.83;;;;;;;;;;5044714;28;20048;-70
2023/11/30 06:03:56;;;;;;;5.55;2.58;;;;;;;;;;5020786;28;20243;-67
2023/11/30 06:06:22;;;;;;;5.25;2.60;;;;;;;;;;5044546;28;20032;-69
2023/11/30 06:08:48;;;;;;;7.80;3.22;;;;;;;;;;5027780;28;20045;-69
2023/11/30 06:11:15;;;;;;;5.25;3.00;;;;;;;;;;5028344;28;20411;-69
2023/11/30 06:13:41;;;;;;;7.03;3.05;;;;;;;;;;5027044;28;20516;-69
2023/11/30 06:16:08;;;;;;;5.25;2.70;;;;;;;;;;5024587;28;20053;-69
2023/11/30 06:18:34;;;;;;;6.18;3.05;;;;;;;;;;5023906;28;20073;-70
2023/11/30 06:21:01;;;;;;;7.15;3.33;;;;;;;;;;5040725;28;20057;-70
2023/11/30 06:23:27;;;;;;;5.88;3.10;;;;;;;;;;5025124;28;20056;-70
2023/11/30 06:25:53;;;;;;;6.45;3.60;;;;;;;;;;5024079;28;20488;-70
2023/11/30 06:28:20;;;;;;;9.45;3.63;;;;;;;;;;5025359;28;20041;-71
2023/11/30 06:30:47;;;;;;;11.05;4.30;;;;;;;;;;5024786;28;20053;-68
2023/11/30 06:33:14;;;;;;;11.95;5.20;;;;;;;;;;5025104;28;20048;-70
2023/11/30 06:35:40;;;;;;;16.73;6.20;;;;;;;;;;5023083;28;20129;-70
2023/11/30 06:38:07;;;;;;;16.67;4.65;;;;;;;;;;5024667;28;20037;-71
2023/11/30 06:40:33;;;;;;;6.57;3.75;;;;;;;;;;5041429;28;20457;-71
2023/11/30 06:42:59;;;;;;;10.40;4.03;;;;;;;;;;5024326;28;20038;-70
2023/11/30 06:45:26;;;;;;;10.40;3.47;;;;;;;;;;5024636;28;20038;-70
2023/11/30 06:47:52;;;;;;;6.75;3.50;;;;;;;;;;5026689;28;20057;-69
2023/11/30 06:50:18;;;;;;;6.93;3.47;;;;;;;;;;5006784;28;20045;-69
2023/11/30 06:52:44;;;;;;;6.40;3.03;;;;;;;;;;5020866;28;20050;-71
2023/11/30 06:55:11;;;;;;;5.72;3.08;;;;;;;;;;5022609;28;20128;-70
2023/11/30 06:57:38;;;;;;;5.00;2.72;;;;;;;;;;5020228;28;20059;-70
2023/11/30 07:00:09;;;;;;;6.20;3.20;;;;;;;;;;5021031;28;20045;-69
2023/11/30 07:02:35;;;;;;;7.90;3.15;;;;;;;;;;5021675;28;21918;-70
2023/11/30 07:05:05;;;;;;;11.90;3.50;;;;;;;;;;5023721;28;20120;-70
2023/11/30 07:07:31;;;;;;;11.75;4.05;;;;;;;;;;5022529;28;20099;-69
2023/11/30 07:09:57;;;;;;;8.73;3.35;;;;;;;;;;5018848;28;20041;-70
2023/11/30 07:12:23;;;;;;;6.82;3.20;;;;;;;;;;5017952;28;20115;-69
2023/11/30 07:14:50;;;;;;;9.13;3.22;;;;;;;;;;5019127;28;20049;-69
2023/11/30 07:17:16;;;;;;;6.20;3.10;;;;;;;;;;5034496;28;20160;-69
2023/11/30 07:19:42;;;;;;;6.57;3.35;;;;;;;;;;5020457;28;20041;-69
2023/11/30 07:22:09;;;;;;;5.47;3.15;;;;;;;;;;5020389;28;20041;-69
2023/11/30 07:24:35;;;;;;;5.55;3.13;;;;;;;;;;5022138;28;20056;-69
2023/11/30 07:27:01;;;;;;;6.63;3.10;;;;;;;;;;5024188;28;20364;-70
2023/11/30 07:29:29;;;;;;;5.25;3.05;;;;;;;;;;5022925;28;20045;-69
2023/11/30 07:31:55;;;;;;;5.00;2.60;;;;;;;;;;5019328;28;20507;-69
2023/11/30 07:34:21;;;;;;;5.20;2.50;;;;;;;;;;5022254;28;20068;-69
2023/11/30 07:36:47;;;;;;;8.73;3.72;;;;;;;;;;5022162;28;20040;-69
2023/11/30 07:39:14;;;;;;;6.72;3.42;;;;;;;;;;5021635;28;21388;-69
2023/11/30 07:41:40;;;;;;;13.30;3.00;;;;;;;;;;5022476;28;20098;-69
2023/11/30 07:44:06;;;;;;;9.25;3.70;;;;;;;;;;5020993;28;20144;-69
2023/11/30 07:46:32;;;;;;;5.63;2.85;;;;;;;;;;5021350;28;20045;-70
2023/11/30 07:48:59;;;;;;;8.55;2.80;;;;;;;;;;5039698;28;20437;-69
2023/11/30 07:51:25;;;;;;;7.32;3.00;;;;;;;;;;5022932;28;20695;-69
2023/11/30 07:53:52;;;;;;;19.42;3.28;;;;;;;;;;5026057;28;20079;-69
2023/11/30 07:56:20;;;;;;;19.35;2.90;;;;;;;;;;5044019;28;20053;-69
2023/11/30 07:58:46;;;;;;;17.42;4.88;;;;;;;;;;5043729;28;20480;-69
2023/11/30 08:01:13;;;;;;;10.15;2.90;;;;;;;;;;5043576;28;21567;-69
2023/11/30 08:03:39;;;;;;;9.00;2.90;;;;;;;;;;5027111;28;20123;-69
2023/11/30 08:06:07;;;;;;;10.20;3.28;;;;;;;;;;5027955;28;20411;-69
2023/11/30 08:08:33;;;;;;;6.90;3.20;;;;;;;;;;5026016;28;20057;-69
2023/11/30 08:10:59;;;;;;;6.60;3.42;;;;;;;;;;5026628;28;20033;-69
2023/11/30 08:13:26;;;;;;;6.07;3.22;;;;;;;;;;5027531;28;20422;-69
2023/11/30 08:15:52;;;;;;;8.52;3.40;;;;;;;;;;5025521;28;20485;-69
2023/11/30 08:18:24;;;;;;;5.43;3.15;;;;;;;;;;5026349;28;20055;-69
2023/11/30 08:20:51;;;;;;;5.38;2.90;;;;;;;;;;5026631;28;20116;-69
2023/11/30 08:23:17;;;;;;;9.23;3.50;;;;;;;;;;5026610;28;20041;-66
2023/11/30 08:25:43;;;;;;;6.05;3.38;;;;;;;;;;5027980;28;20056;-69
2023/11/30 08:28:10;;;;;;;6.03;3.25;;;;;;;;;;5030739;28;20075;-68
2023/11/30 08:30:36;;;;;;;6.45;3.33;;;;;;;;;;5030956;28;20040;-69
2023/11/30 08:33:04;;;;;;;7.28;3.97;;;;;;;;;;5048679;28;20037;-69
2023/11/30 08:35:30;;;;;;;8.13;3.72;;;;;;;;;;5048333;28;20044;-68
2023/11/30 08:37:56;;;;;;;7.35;4.05;;;;;;;;;;5027581;28;20041;-69
2023/11/30 08:40:23;;;;;;;12.45;5.88;;;;;;;;;;5029026;28;20836;-68
2023/11/30 08:42:49;;;;;;;7.22;3.83;;;;;;;;;;5031563;28;20063;-69
2023/11/30 08:45:15;;;;;;;6.57;4.07;;;;;;;;;;5029822;28;20057;-68
2023/11/30 08:47:43;;;;;;;6.45;4.10;;;;;;;;;;5029598;28;20075;-69
2023/11/30 08:50:09;;;;;;;6.75;4.30;;;;;;;;;;5011416;28;20075;-70
2023/11/30 08:52:35;;;;;;;8.00;4.30;;;;;;;;;;5049003;28;21390;-69
2023/11/30 08:55:02;;;;;;;7.75;4.10;;;;;;;;;;5030265;28;20116;-70
2023/11/30 08:57:28;;;;;;;8.02;4.00;;;;;;;;;;5005866;28;20145;-70
2023/11/30 08:59:55;;;;;;;11.20;4.97;;;;;;;;;;5030523;28;20771;-70
2023/11/30 09:02:24;;;;;;;7.70;4.28;;;;;;;;;;5029202;28;20059;-69
2023/11/30 09:04:51;;;;;;;8.27;4.78;;;;;;;;;;5044560;28;20045;-69
2023/11/30 09:07:17;;;;;;;8.15;4.18;;;;;;;;;;5026723;28;20045;-69
2023/11/30 09:09:44;;;;;;;9.45;4.20;;;;;;;;;;5029772;28;20164;-70
2023/11/30 09:12:11;;;;;;;7.63;4.15;;;;;;;;;;5047049;28;20045;-69
2023/11/30 09:14:37;;;;;;;9.70;4.28;;;;;;;;;;5028742;28;20111;-70
2023/11/30 09:17:05;;;;;;;8.40;4.70;;;;;;;;;;5009643;28;20048;-70
2023/11/30 09:19:32;;;;;;;7.88;4.68;;;;;;;;;;5031785;28;20124;-70
2023/11/30 09:21:58;;;;;;;7.32;4.57;;;;;;;;;;5031462;28;20043;-70
2023/11/30 09:24:24;;;;;;;7.93;4.47;;;;;;;;;;5032792;28;20099;-70
2023/11/30 09:26:51;;;;;;;8.10;5.00;;;;;;;;;;5050437;28;20121;-70
2023/11/30 09:29:17;;;;;;;7.80;4.40;;;;;;;;;;5054184;28;20045;-70
2023/11/30 09:31:44;;;;;;;11.60;5.90;;;;;;;;;;5033833;28;20045;-70
2023/11/30 09:34:11;;;;;;;9.20;5.70;;;;;;;;;;5027845;28;20080;-70
2023/11/30 09:36:38;;;;;;;9.27;5.40;;;;;;;;;;5012113;28;20192;-70
2023/11/30 09:39:07;;;;;;;11.18;5.38;;;;;;;;;;5012971;28;20415;-70
2023/11/30 09:41:36;;;;;;;10.52;4.82;;;;;;;;;;5009157;28;20037;-70
2023/11/30 09:44:03;;;;;;;11.98;5.65;;;;;;;;;;5029428;28;20098;-70
2023/11/30 09:46:31;;;;;;;8.95;5.40;;;;;;;;;;5027175;28;20037;-70
2023/11/30 09:48:58;;;;;;;8.85;5.10;;;;;;;;;;5028639;28;20049;-69
2023/11/30 09:51:27;;;;;;;11.63;6.65;;;;;;;;;;5046065;28;20076;-82
2023/11/30 09:53:55;;;;;;;9.20;5.68;;;;;;;;;;5027948;28;20488;-70
2023/11/30 09:56:21;;;;;;;10.65;5.85;;;;;;;;;;5045710;28;20505;-70
2023/11/30 09:58:48;;;;;;;8.63;5.07;;;;;;;;;;5031354;28;20099;-70
2023/11/30 10:01:14;;;;;;;11.70;5.50;;;;;;;;;;5042402;28;20041;-70
2023/11/30 10:03:41;;;;;;;9.63;6.05;;;;;;;;;;5029079;28;20040;-70
2023/11/30 10:06:08;;;;;;;9.40;5.68;;;;;;;;;;5028641;28;20041;-70
2023/11/30 10:08:34;;;;;;;10.25;5.88;;;;;;;;;;5047757;28;20032;-70
2023/11/30 10:11:00;;;;;;;11.00;6.13;;;;;;;;;;5028036;28;20119;-70
2023/11/30 10:13:26;;;;;;;13.23;6.30;;;;;;;;;;5047349;28;20417;-70
2023/11/30 10:15:53;;;;;;;11.95;6.88;;;;;;;;;;5026418;28;20045;-70
2023/11/30 10:18:19;;;;;;;10.77;6.50;;;;;;;;;;5027521;28;20253;-74
2023/11/30 10:20:46;;;;;;;9.95;5.95;;;;;;;;;;5029337;28;20098;-70
2023/11/30 10:23:13;;;;;;;9.68;6.07;;;;;;;;;;5045392;28;20041;-71
2023/11/30 10:25:41;;;;;;;11.00;6.28;;;;;;;;;;5028657;28;20048;-70
2023/11/30 10:28:12;;;;;;;10.60;6.57;;;;;;;;;;5020138;28;20079;-71
2023/11/30 10:30:42;;;;;;;12.63;7.50;;;;;;;;;;5027134;28;20080;-71
2023/11/30 10:33:13;;;;;;;13.95;7.65;;;;;;;;;;5029218;28;20045;-71
2023/11/30 10:35:43;;;;;;;9.75;6.30;;;;;;;;;;5045500;28;20560;-70
2023/11/30 10:38:10;;;;;;;10.48;6.00;;;;;;;;;;5027625;28;20053;-70
2023/11/30 10:40:37;;;;;;;9.32;5.88;;;;;;;;;;5028779;28;20094;-70
2023/11/30 10:43:04;;;;;;;10.20;6.40;;;;;;;;;;5028646;28;20143;-70
2023/11/30 10:45:32;;;;;;;8.00;5.05;;;;;;;;;;5027843;28;20048;-70
2023/11/30 10:47:59;;;;;;;9.07;5.20;;;;;;;;;;5026903;28;20098;-70
2023/11/30 10:50:26;;;;;;;8.48;5.15;;;;;;;;;;5027625;28;20056;-70
2023/11/30 10:52:53;;;;;;;9.02;5.65;;;;;;;;;;5027523;28;20052;-71
2023/11/30 10:55:21;;;;;;;9.15;5.82;;;;;;;;;;5027322;28;20049;-70
2023/11/30 10:57:47;;;;;;;9.40;6.05;;;;;;;;;;5046194;28;20075;-70
2023/11/30 11:00:14;;;;;;;11.55;6.30;;;;;;;;;;5028539;28;20037;-70
2023/11/30 11:02:43;;;;;;;10.18;5.90;;;;;;;;;;5024812;28;20044;-70
2023/11/30 11:05:13;;;;;;;10.60;6.57;;;;;;;;;;5011496;28;20057;-70
2023/11/30 11:07:43;;;;;;;9.55;5.75;;;;;;;;;;5044219;28;20147;-69
2023/11/30 11:10:19;;;;;;;26.33;6.20;;;;;;;;;;5045401;28;20041;-70
2023/11/30 11:12:48;;;;;;;108.60;8.27;;;;;;;;;;5025924;28;20459;-69
2023/11/30 11:15:19;;;;;;;88.55;8.20;;;;;;;;;;5026711;28;20455;-70
2023/11/30 11:17:47;;;;;;;149.27;10.13;;;;;;;;;;5027509;28;20546;-70
2023/11/30 11:20:20;;;;;;;44.88;6.57;;;;;;;;;;5005549;28;20041;-70
2023/11/30 11:22:47;;;;;;;23.25;5.85;;;;;;;;;;5044883;28;20459;-70
2023/11/30 11:25:16;;;;;;;35.60;5.90;;;;;;;;;;5026372;28;20090;-70
2023/11/30 11:27:42;;;;;;;27.30;5.75;;;;;;;;;;5027464;28;20057;-69
2023/11/30 11:30:08;;;;;;;30.30;6.65;;;;;;;;;;5029183;28;20040;-70
2023/11/30 11:32:36;;;;;;;36.67;7.03;;;;;;;;;;5030487;28;20045;-70
2023/11/30 11:35:03;;;;;;;74.20;9.02;;;;;;;;;;5030551;28;20489;-70
2023/11/30 11:37:29;;;;;;;68.45;7.13;;;;;;;;;;5030411;28;20085;-71
2023/11/30 11:39:56;;;;;;;37.40;6.63;;;;;;;;;;5030364;28;20422;-70
2023/11/30 11:42:23;;;;;;;59.33;8.10;;;;;;;;;;5026909;28;20078;-69
2023/11/30 11:44:50;;;;;;;49.80;6.80;;;;;;;;;;5024071;28;20037;-69
2023/11/30 11:47:16;;;;;;;58.25;7.75;;;;;;;;;;5028164;28;20127;-70
2023/11/30 11:49:42;;;;;;;47.67;8.25;;;;;;;;;;5043376;28;20487;-70
2023/11/30 11:52:09;;;;;;;35.15;7.45;;;;;;;;;;5023579;28;20127;-69
2023/11/30 11:54:35;;;;;;;38.13;7.13;;;;;;;;;;5022504;28;20064;-70
2023/11/30 11:57:02;;;;;;;37.15;7.53;;;;;;;;;;5025095;28;20049;-70
2023/11/30 11:59:29;;;;;;;59.72;8.18;;;;;;;;;;5024668;28;20090;-70
2023/11/30 12:01:57;;;;;;;62.72;8.02;;;;;;;;;;5022084;28;20048;-69
2023/11/30 12:04:35;;;;;;;45.15;7.70;;;;;;;;;;5043149;28;20051;-70
2023/11/30 12:07:12;;;;;;;71.40;8.55;;;;;;;;;;5024039;28;20533;-70
2023/11/30 12:09:39;;;;;;;39.55;6.60;;;;;;;;;;5027208;28;20041;-70
2023/11/30 12:12:07;;;;;;;35.55;7.00;;;;;;;;;;5030387;28;20124;-70
2023/11/30 12:14:33;;;;;;;36.13;6.43;;;;;;;;;;5044506;28;20033;-70
2023/11/30 12:16:59;;;;;;;55.15;8.35;;;;;;;;;;5026421;28;20060;-70
2023/11/30 12:19:25;;;;;;;33.30;6.43;;;;;;;;;;5027494;28;20136;-70
2023/11/30 12:21:51;;;;;;;59.78;6.80;;;;;;;;;;5026884;28;20072;-70
2023/11/30 12:24:18;;;;;;;57.00;5.97;;;;;;;;;;5023792;28;20089;-70
2023/11/30 12:26:44;;;;;;;50.78;5.20;;;;;;;;;;5026348;28;20496;-70
2023/11/30 12:29:11;;;;;;;22.67;4.65;;;;;;;;;;5026318;28;20041;-70
2023/11/30 12:31:37;;;;;;;49.85;5.00;;;;;;;;;;5043954;28;20045;-70
2023/11/30 12:34:03;;;;;;;30.35;4.03;;;;;;;;;;5027697;28;20400;-70
2023/11/30 12:36:30;;;;;;;53.92;4.82;;;;;;;;;;5026646;28;20041;-69
2023/11/30 12:38:56;;;;;;;20.00;4.55;;;;;;;;;;5010433;28;20077;-70
2023/11/30 12:41:23;;;;;;;23.92;4.22;;;;;;;;;;5042641;28;20044;-70
2023/11/30 12:43:49;;;;;;;36.33;5.15;;;;;;;;;;5024647;28;20041;-69
2023/11/30 12:46:15;;;;;;;30.65;5.68;;;;;;;;;;5026300;28;20515;-70
2023/11/30 12:48:43;;;;;;;17.17;4.25;;;;;;;;;;5026623;28;20033;-70
2023/11/30 12:51:09;;;;;;;32.95;4.80;;;;;;;;;;5024659;28;20052;-69
2023/11/30 12:53:36;;;;;;;34.10;4.97;;;;;;;;;;5025543;28;20044;-67
2023/11/30 12:56:02;;;;;;;41.53;4.95;;;;;;;;;;5045030;28;20136;-68
2023/11/30 12:58:28;;;;;;;81.82;5.47;;;;;;;;;;5043272;28;20053;-68
2023/11/30 13:00:55;;;;;;;90.85;6.68;;;;;;;;;;5026229;28;20427;-68
2023/11/30 13:03:22;;;;;;;65.22;5.32;;;;;;;;;;5041653;28;20041;-68
2023/11/30 13:05:49;;;;;;;40.17;4.55;;;;;;;;;;5044782;28;20727;-68
2023/11/30 13:08:15;;;;;;;28.67;4.80;;;;;;;;;;5045338;28;20094;-68
2023/11/30 13:10:41;;;;;;;49.97;4.90;;;;;;;;;;5026077;28;20057;-74
2023/11/30 13:13:07;;;;;;;97.93;6.38;;;;;;;;;;5027572;28;20152;-75
2023/11/30 13:15:34;;;;;;;32.08;5.18;;;;;;;;;;5030398;28;20500;-76
2023/11/30 13:18:00;;;;;;;46.90;5.50;;;;;;;;;;5045913;28;20531;-74
2023/11/30 13:20:26;;;;;;;149.18;7.93;;;;;;;;;;5029003;28;20454;-73
2023/11/30 13:22:53;;;;;;;103.78;7.13;;;;;;;;;;5027490;28;20044;-74
2023/11/30 13:25:19;;;;;;;52.65;5.35;;;;;;;;;;5030666;28;20140;-74
2023/11/30 13:27:45;;;;;;;51.17;5.63;;;;;;;;;;5029374;28;20202;-73
2023/11/30 13:30:12;;;;;;;59.03;5.95;;;;;;;;;;5047798;28;20037;-73
2023/11/30 13:32:38;;;;;;;43.75;4.90;;;;;;;;;;5027421;28;20504;-73
2023/11/30 13:35:06;;;;;;;44.25;5.97;;;;;;;;;;5007418;28;20044;-74
2023/11/30 13:37:32;;;;;;;84.38;8.10;;;;;;;;;;5028881;28;20052;-69
2023/11/30 13:39:59;;;;;;;36.53;5.15;;;;;;;;;;5028820;28;20068;-75
2023/11/30 13:42:25;;;;;;;42.60;4.47;;;;;;;;;;5026920;28;20041;-74
2023/11/30 13:44:51;;;;;;;41.05;4.65;;;;;;;;;;5030445;28;20049;-73
2023/11/30 13:47:19;;;;;;;43.28;5.45;;;;;;;;;;5027764;28;20077;-74
2023/11/30 13:49:45;;;;;;;28.00;4.47;;;;;;;;;;5029631;28;20143;-74
2023/11/30 13:52:11;;;;;;;23.05;4.68;;;;;;;;;;5029738;28;20060;-74
2023/11/30 13:54:38;;;;;;;15.15;4.55;;;;;;;;;;5044433;28;20419;-68
2023/11/30 13:57:06;;;;;;;25.50;5.25;;;;;;;;;;5042135;28;20053;-68
2023/11/30 13:59:32;;;;;;;50.63;6.93;;;;;;;;;;5026640;28;20127;-68
2023/11/30 14:01:59;;;;;;;31.13;5.93;;;;;;;;;;5007806;28;20477;-68
2023/11/30 14:04:25;;;;;;;32.20;5.00;;;;;;;;;;5025839;28;20053;-68
2023/11/30 14:06:56;;;;;;;22.30;5.00;;;;;;;;;;5044782;28;22115;-66
2023/11/30 14:09:25;;;;;;;36.75;5.75;;;;;;;;;;5042876;28;20107;-70
2023/11/30 14:11:53;;;;;;;56.50;6.07;;;;;;;;;;5023879;28;20082;-68
2023/11/30 14:14:19;;;;;;;40.05;6.47;;;;;;;;;;5026087;28;20041;-66
2023/11/30 14:16:45;;;;;;;70.50;7.90;;;;;;;;;;5026043;28;20057;-68
2023/11/30 14:19:12;;;;;;;67.22;6.53;;;;;;;;;;5025481;28;20041;-68
2023/11/30 14:21:39;;;;;;;58.75;7.05;;;;;;;;;;5046786;28;20049;-67
2023/11/30 14:24:06;;;;;;;62.83;8.43;;;;;;;;;;5018954;28;20087;-67
2023/11/30 14:26:32;;;;;;;80.53;10.30;;;;;;;;;;5019416;28;20066;-69
2023/11/30 14:28:58;;;;;;;70.53;7.85;;;;;;;;;;5020905;28;21689;-68